createdAt,value
2023-06-17T00:00:12.038Z,0.90
2023-06-17T00:02:50.828Z,1.23
2023-06-17T00:05:20.063Z,1.60
2023-06-17T00:07:51.798Z,1.98
2023-06-17T00:10:21.152Z,1.90
2023-06-17T00:12:51.064Z,1.95
2023-06-17T00:15:24.766Z,2.10
2023-06-17T00:17:54.180Z,2.25
2023-06-17T00:20:36.161Z,2.40
2023-06-17T00:23:10.299Z,2.30
2023-06-17T00:25:47.115Z,2.50
2023-06-17T00:28:19.269Z,2.30
2023-06-17T00:30:53.888Z,2.30
2023-06-17T00:33:37.437Z,2.42
2023-06-17T00:36:20.322Z,2.13
2023-06-17T00:39:00.635Z,2.40
2023-06-17T00:41:29.925Z,2.55
2023-06-17T00:44:04.409Z,2.15
2023-06-17T00:46:52.871Z,2.60
2023-06-17T00:49:32.014Z,2.80
2023-06-17T00:52:23.723Z,2.38
2023-06-17T00:54:57.167Z,2.28
2023-06-17T00:57:28.670Z,2.85
2023-06-17T00:59:57.862Z,2.90
2023-06-17T01:02:32.531Z,2.50
2023-06-17T01:05:08.938Z,2.25
2023-06-17T01:08:32.661Z,2.38
2023-06-17T01:11:21.395Z,2.63
2023-06-17T01:14:06.276Z,3.08
2023-06-17T01:16:44.057Z,3.03
2023-06-17T01:19:25.148Z,2.67
2023-06-17T01:22:12.155Z,2.47
2023-06-17T01:24:42.447Z,2.17
2023-06-17T01:27:39.753Z,2.28
2023-06-17T01:30:15.597Z,2.20
2023-06-17T01:32:48.488Z,2.40
2023-06-17T01:36:00.480Z,2.28
2023-06-17T01:39:07.633Z,2.28
2023-06-17T01:41:52.362Z,2.33
2023-06-17T01:44:44.230Z,2.00
2023-06-17T01:47:37.497Z,2.17
2023-06-17T01:50:15.158Z,2.05
2023-06-17T01:52:49.816Z,1.70
2023-06-17T01:55:37.393Z,1.92
2023-06-17T01:58:30.310Z,1.80
2023-06-17T02:01:20.960Z,1.92
2023-06-17T02:04:14.083Z,1.85
2023-06-17T02:06:46.008Z,1.25
2023-06-17T02:09:41.504Z,1.38
2023-06-17T02:12:21.483Z,1.02
2023-06-17T02:15:22.525Z,1.00
2023-06-17T02:17:58.075Z,1.15
2023-06-17T02:20:58.308Z,1.05
2023-06-17T02:38:07.323Z,1.40
2023-06-17T02:40:51.745Z,1.20
2023-06-17T02:43:24.098Z,1.50
2023-06-17T02:45:53.445Z,1.10
2023-06-17T02:48:23.197Z,1.20
2023-06-17T02:50:58.130Z,1.05
2023-06-17T02:53:27.185Z,1.30
2023-06-17T02:55:57.603Z,1.50
2023-06-17T02:58:36.320Z,1.10
2023-06-17T03:01:09.984Z,1.00
2023-06-17T03:03:39.628Z,1.20
2023-06-17T03:06:11.321Z,1.20
2023-06-17T03:08:46.767Z,1.08
2023-06-17T03:11:17.685Z,0.77
2023-06-17T03:13:51.923Z,1.25
2023-06-17T03:16:26.819Z,1.00
2023-06-17T03:18:56.466Z,0.90
2023-06-17T03:21:25.524Z,1.08
2023-06-17T03:23:55.680Z,0.90
2023-06-17T03:26:25.078Z,0.70
2023-06-17T03:28:56.939Z,1.02
2023-06-17T03:31:29.300Z,0.82
2023-06-17T03:33:58.455Z,1.15
2023-06-17T03:36:31.735Z,0.93
2023-06-17T03:39:00.904Z,0.85
2023-06-17T03:41:34.804Z,0.77
2023-06-17T03:44:04.176Z,0.50
2023-06-17T03:46:33.435Z,0.80
2023-06-17T03:49:04.199Z,0.77
2023-06-17T03:51:34.344Z,0.77
2023-06-17T03:54:04.480Z,0.60
2023-06-17T03:56:52.544Z,0.80
2023-06-17T04:04:07.240Z,0.80
2023-06-17T04:06:56.842Z,1.05
2023-06-17T04:09:33.678Z,0.95
2023-06-17T04:12:23.419Z,1.08
2023-06-17T04:15:43.698Z,1.15
2023-06-17T04:18:15.523Z,1.00
2023-06-17T04:21:08.809Z,1.15
2023-06-17T04:23:38.495Z,1.00
2023-06-17T04:26:08.690Z,1.30
2023-06-17T04:28:37.944Z,0.93
2023-06-17T04:31:12.863Z,0.75
2023-06-17T04:33:46.681Z,0.52
2023-06-17T04:36:18.672Z,0.50
2023-06-17T04:38:51.812Z,0.60
2023-06-17T04:41:23.640Z,0.50
2023-06-17T04:43:53.318Z,0.50
2023-06-17T04:46:25.913Z,0.60
2023-06-17T04:48:58.568Z,0.50
2023-06-17T04:51:27.794Z,0.70
2023-06-17T04:53:58.651Z,0.70
2023-06-17T04:56:35.986Z,0.52
2023-06-17T04:59:10.284Z,0.68
2023-06-17T05:01:44.788Z,0.50
2023-06-17T05:04:17.390Z,0.60
2023-06-17T05:06:47.105Z,0.50
2023-06-17T05:09:18.752Z,0.60
2023-06-17T05:11:48.365Z,0.85
2023-06-17T05:14:22.659Z,0.70
2023-06-17T05:16:52.449Z,1.08
2023-06-17T05:19:24.801Z,0.93
2023-06-17T05:21:53.846Z,1.05
2023-06-17T05:24:29.580Z,1.10
2023-06-17T05:27:02.783Z,1.00
2023-06-17T05:29:32.084Z,0.95
2023-06-17T05:32:01.506Z,1.27
2023-06-17T05:34:31.216Z,1.40
2023-06-17T05:37:03.159Z,1.45
2023-06-17T05:39:39.763Z,1.30
2023-06-17T05:42:09.117Z,0.80
2023-06-17T05:44:41.823Z,0.95
2023-06-17T05:47:15.343Z,1.92
2023-06-17T05:49:50.235Z,4.30
2023-06-17T05:52:21.394Z,3.53
2023-06-17T05:54:53.522Z,2.42
2023-06-17T05:57:23.379Z,2.60
2023-06-17T05:59:57.281Z,3.17
2023-06-17T06:02:39.103Z,1.42
2023-06-17T06:05:10.061Z,0.65
2023-06-17T06:07:46.188Z,0.82
2023-06-17T06:10:21.126Z,0.70
2023-06-17T06:12:58.692Z,0.80
2023-06-17T06:15:27.925Z,0.70
2023-06-17T06:17:57.047Z,0.73
2023-06-17T06:20:30.841Z,0.70
2023-06-17T06:23:00.813Z,0.90
2023-06-17T06:25:32.977Z,1.63
2023-06-17T06:28:03.369Z,1.20
2023-06-17T06:30:46.753Z,1.23
2023-06-17T06:33:18.795Z,0.98
2023-06-17T06:35:48.499Z,0.88
2023-06-17T06:38:20.803Z,0.90
2023-06-17T06:40:49.987Z,3.60
2023-06-17T06:43:22.276Z,2.72
2023-06-17T06:45:59.905Z,1.33
2023-06-17T06:48:31.960Z,1.90
2023-06-17T06:51:03.056Z,3.95
2023-06-17T06:56:20.288Z,2.35
2023-06-17T06:58:49.909Z,1.40
2023-06-17T07:01:19.236Z,1.60
2023-06-17T07:03:51.904Z,1.58
2023-06-17T07:06:21.973Z,1.35
2023-06-17T07:08:51.197Z,1.20
2023-06-17T07:11:23.839Z,2.13
2023-06-17T07:13:53.185Z,1.70
2023-06-17T07:16:25.717Z,1.40
2023-06-17T07:18:56.619Z,1.30
2023-06-17T07:21:26.528Z,1.45
2023-06-17T07:23:55.743Z,1.30
2023-06-17T07:26:27.959Z,1.38
2023-06-17T07:29:02.730Z,1.60
2023-06-17T07:31:32.538Z,1.60
2023-06-17T07:34:02.581Z,1.38
2023-06-17T07:36:35.563Z,1.60
2023-06-17T07:39:12.394Z,1.38
2023-06-17T07:41:50.604Z,1.77
2023-06-17T07:44:23.039Z,1.73
2023-06-17T07:46:56.929Z,1.70
2023-06-17T07:49:30.432Z,2.08
2023-06-17T07:52:02.640Z,1.67
2023-06-17T07:54:54.547Z,1.52
2023-06-17T07:57:29.785Z,1.65
2023-06-17T08:00:03.031Z,1.70
2023-06-17T08:02:45.393Z,1.45
2023-06-17T08:05:16.587Z,1.60
2023-06-17T08:07:56.594Z,1.88
2023-06-17T08:10:45.814Z,1.83
2023-06-17T08:13:26.603Z,1.88
2023-06-17T08:16:01.438Z,1.58
2023-06-17T08:18:30.589Z,1.70
2023-06-17T08:21:02.377Z,1.73
2023-06-17T08:23:53.341Z,1.65
2023-06-17T08:26:22.523Z,1.50
2023-06-17T08:28:58.265Z,1.58
2023-06-17T08:31:29.789Z,1.55
2023-06-17T08:33:58.989Z,1.90
2023-06-17T08:36:30.738Z,2.38
2023-06-17T08:39:03.292Z,1.92
2023-06-17T08:41:42.360Z,1.90
2023-06-17T08:44:26.795Z,1.40
2023-06-17T08:47:01.204Z,1.40
2023-06-17T08:49:30.955Z,1.60
2023-06-17T08:52:04.752Z,1.90
2023-06-17T08:54:42.168Z,2.08
2023-06-17T08:57:19.212Z,1.70
2023-06-17T09:00:25.857Z,1.40
2023-06-17T09:05:55.653Z,1.40
2023-06-17T09:08:33.591Z,1.52
2023-06-17T09:11:14.928Z,1.33
2023-06-17T09:13:54.909Z,1.17
2023-06-17T09:16:41.245Z,1.38
2023-06-17T09:19:16.502Z,1.85
2023-06-17T09:21:58.297Z,1.65
2023-06-17T09:24:37.289Z,1.38
2023-06-17T09:27:11.854Z,1.63
2023-06-17T09:29:57.927Z,1.70
2023-06-17T09:32:41.733Z,1.25
2023-06-17T09:35:18.076Z,1.63
2023-06-17T09:38:03.287Z,1.55
2023-06-17T09:40:37.216Z,1.98
2023-06-17T09:43:25.904Z,1.27
2023-06-17T09:46:09.028Z,1.60
2023-06-17T09:48:44.575Z,1.25
2023-06-17T09:51:15.271Z,1.42
2023-06-17T09:53:49.204Z,1.80
2023-06-17T09:56:57.866Z,1.60
2023-06-17T09:59:37.856Z,1.55
2023-06-17T10:02:12.427Z,1.83
2023-06-17T10:04:46.320Z,1.40
2023-06-17T10:09:56.391Z,1.60
2023-06-17T10:12:33.544Z,1.60
2023-06-17T10:15:05.844Z,1.77
2023-06-17T10:17:42.592Z,1.63
2023-06-17T10:20:17.984Z,1.50
2023-06-17T10:22:51.526Z,1.20
2023-06-17T10:25:27.696Z,2.17
2023-06-17T10:28:12.675Z,1.70
2023-06-17T10:30:50.091Z,1.55
2023-06-17T10:33:31.463Z,1.50
2023-06-17T10:36:25.091Z,1.45
2023-06-17T10:38:58.650Z,1.33
2023-06-17T10:41:57.655Z,1.83
2023-06-17T10:44:36.292Z,1.67
2023-06-17T10:47:26.942Z,1.27
2023-06-17T10:52:32.295Z,2.03
2023-06-17T10:55:01.669Z,1.55
2023-06-17T10:57:37.427Z,1.65
2023-06-17T11:00:12.823Z,1.95
2023-06-17T11:02:45.529Z,1.30
2023-06-17T11:05:18.865Z,1.90
2023-06-17T11:07:48.021Z,1.33
2023-06-17T11:10:20.354Z,1.70
2023-06-17T11:12:51.255Z,1.50
2023-06-17T11:15:20.697Z,1.40
2023-06-17T11:17:53.068Z,1.83
2023-06-17T11:20:22.555Z,1.50
2023-06-17T11:22:57.545Z,1.75
2023-06-17T11:25:39.697Z,1.88
2023-06-17T11:28:14.493Z,1.63
2023-06-17T11:31:03.317Z,1.63
2023-06-17T11:33:40.079Z,1.75
2023-06-17T11:36:16.028Z,1.42
2023-06-17T11:38:52.806Z,1.80
2023-06-17T11:41:27.818Z,1.58
2023-06-17T11:44:08.682Z,1.58
2023-06-17T11:46:50.743Z,2.17
2023-06-17T11:49:21.413Z,1.30
2023-06-17T11:51:53.447Z,1.70
2023-06-17T11:54:27.954Z,1.50
2023-06-17T11:56:59.708Z,1.48
2023-06-17T11:59:33.292Z,1.58
2023-06-17T12:02:07.627Z,1.23
2023-06-17T12:04:49.238Z,1.65
2023-06-17T12:07:25.897Z,1.50
2023-06-17T12:12:37.593Z,1.50
2023-06-17T12:15:32.305Z,1.60
2023-06-17T12:18:17.519Z,1.25
2023-06-17T12:20:51.617Z,1.58
2023-06-17T12:23:26.425Z,1.55
2023-06-17T12:25:59.167Z,1.80
2023-06-17T12:28:53.478Z,1.65
2023-06-17T12:31:25.644Z,1.70
2023-06-17T12:33:58.000Z,1.80
2023-06-17T12:36:30.711Z,1.52
2023-06-17T12:39:02.553Z,1.58
2023-06-17T12:41:33.575Z,1.60
2023-06-17T12:44:10.956Z,1.45
2023-06-17T12:49:25.361Z,1.20
2023-06-17T12:51:57.241Z,2.35
2023-06-17T12:54:27.141Z,1.60
2023-06-17T12:57:00.343Z,2.03
2023-06-17T12:59:52.584Z,1.65
2023-06-17T13:02:25.056Z,1.50
2023-06-17T13:05:12.182Z,1.60
2023-06-17T13:07:49.342Z,1.60
2023-06-17T13:10:21.635Z,1.70
2023-06-17T13:12:58.289Z,1.20
2023-06-17T13:15:32.280Z,1.50
2023-06-17T13:18:17.848Z,1.70
2023-06-17T13:20:50.042Z,1.42
2023-06-17T13:23:21.446Z,1.70
2023-06-17T13:26:04.974Z,1.85
2023-06-17T13:29:13.192Z,1.75
2023-06-17T13:31:49.581Z,1.65
2023-06-17T13:34:25.560Z,1.50
2023-06-17T13:37:13.816Z,1.42
2023-06-17T13:39:54.310Z,1.40
2023-06-17T13:42:34.406Z,1.15
2023-06-17T13:45:13.858Z,1.38
2023-06-17T13:47:49.726Z,1.30
2023-06-17T13:50:39.478Z,1.50
2023-06-17T13:53:08.655Z,1.40
2023-06-17T13:55:45.479Z,1.38
2023-06-17T13:58:14.630Z,1.48
2023-06-17T14:00:49.510Z,1.38
2023-06-17T14:03:24.638Z,2.15
2023-06-17T14:06:13.341Z,1.35
2023-06-17T14:08:45.764Z,1.88
2023-06-17T14:11:15.100Z,1.42
2023-06-17T14:13:55.647Z,1.50
2023-06-17T14:16:33.926Z,1.45
2023-06-17T14:19:03.574Z,1.83
2023-06-17T14:21:40.631Z,1.40
2023-06-17T14:24:13.099Z,1.20
2023-06-17T14:27:14.093Z,1.10
2023-06-17T14:29:46.651Z,1.40
2023-06-17T14:32:15.795Z,1.33
2023-06-17T14:34:47.656Z,1.85
2023-06-17T14:37:33.215Z,1.13
2023-06-17T14:40:27.993Z,1.17
2023-06-17T14:43:02.124Z,1.58
2023-06-17T14:45:35.703Z,1.40
2023-06-17T14:48:07.042Z,1.15
2023-06-17T14:50:40.337Z,1.05
2023-06-17T14:53:14.500Z,0.95
2023-06-17T14:57:20.537Z,1.40
2023-06-17T14:59:53.614Z,1.75
2023-06-17T15:02:49.985Z,1.15
2023-06-17T15:05:22.232Z,1.45
2023-06-17T15:07:53.974Z,1.50
2023-06-17T15:10:23.846Z,1.15
2023-06-17T15:12:54.076Z,1.42
2023-06-17T15:15:24.297Z,1.10
2023-06-17T15:17:53.575Z,1.10
2023-06-17T15:20:23.035Z,1.50
2023-06-17T15:22:54.332Z,1.23
2023-06-17T15:25:23.901Z,1.13
2023-06-17T15:27:59.537Z,1.20
2023-06-17T15:30:28.601Z,1.02
2023-06-17T15:32:57.638Z,1.20
2023-06-17T15:35:27.182Z,1.30
2023-06-17T15:37:56.374Z,1.73
2023-06-17T15:40:27.101Z,1.20
2023-06-17T15:42:56.205Z,1.40
2023-06-17T15:45:25.364Z,1.10
2023-06-17T15:47:54.500Z,1.17
2023-06-17T15:50:25.812Z,1.40
2023-06-17T15:52:54.889Z,1.30
2023-06-17T15:55:27.555Z,1.33
2023-06-17T15:57:57.300Z,1.30
2023-06-17T16:00:29.706Z,1.60
2023-06-17T16:03:02.574Z,2.05
2023-06-17T16:05:31.857Z,1.10
2023-06-17T16:08:03.242Z,1.15
2023-06-17T16:10:34.577Z,1.23
2023-06-17T16:13:03.799Z,1.23
2023-06-17T16:15:39.024Z,1.50
2023-06-17T16:18:16.670Z,1.20
2023-06-17T16:20:51.768Z,0.95
2023-06-17T16:23:57.604Z,1.00
2023-06-17T16:26:35.703Z,1.02
2023-06-17T16:29:05.839Z,1.70
2023-06-17T16:31:34.817Z,1.15
2023-06-17T16:34:07.086Z,0.90
2023-06-17T16:36:36.373Z,1.50
2023-06-17T16:39:08.725Z,1.42
2023-06-17T16:41:39.077Z,1.02
2023-06-17T16:44:08.684Z,1.33
2023-06-17T16:46:40.997Z,1.13
2023-06-17T16:49:11.044Z,1.10
2023-06-17T16:51:40.138Z,1.08
2023-06-17T16:54:09.837Z,3.45
2023-06-17T16:56:39.823Z,1.05
2023-06-17T16:59:08.825Z,1.15
2023-06-17T17:01:43.378Z,1.40
2023-06-17T17:04:14.916Z,1.58
2023-06-17T17:06:44.714Z,1.10
2023-06-17T17:09:24.828Z,1.65
2023-06-17T17:11:58.372Z,1.35
2023-06-17T17:14:32.444Z,1.20
2023-06-17T17:17:10.465Z,1.40
2023-06-17T17:19:39.719Z,1.40
2023-06-17T17:22:16.622Z,1.60
2023-06-17T17:24:51.795Z,1.10
2023-06-17T17:27:20.960Z,1.15
2023-06-17T17:35:47.446Z,1.45
2023-06-17T17:38:32.914Z,1.02
2023-06-17T17:41:04.513Z,1.20
2023-06-17T17:43:36.919Z,1.13
2023-06-17T17:47:30.859Z,1.20
2023-06-17T17:49:36.281Z,1.90
2023-06-17T17:52:05.613Z,1.27
2023-06-17T17:54:36.542Z,1.00
2023-06-17T17:57:06.399Z,1.38
2023-06-17T17:59:37.065Z,1.25
2023-06-17T18:02:11.215Z,1.33
2023-06-17T18:04:40.265Z,1.20
2023-06-17T18:07:20.653Z,1.40
2023-06-17T18:10:04.343Z,1.23
2023-06-17T18:12:33.772Z,1.20
2023-06-17T18:15:33.410Z,1.52
2023-06-17T18:18:27.178Z,1.40
2023-06-17T18:20:59.149Z,1.23
2023-06-17T18:23:28.309Z,1.67
2023-06-17T18:26:00.672Z,1.88
2023-06-17T18:28:31.950Z,1.13
2023-06-17T18:31:07.520Z,1.10
2023-06-17T18:33:40.095Z,1.02
2023-06-17T18:36:12.125Z,1.00
2023-06-17T18:38:41.377Z,1.13
2023-06-17T18:41:13.417Z,0.98
2023-06-17T18:43:45.548Z,1.88
2023-06-17T18:46:17.803Z,1.08
2023-06-17T18:48:49.820Z,1.35
2023-06-17T18:51:19.299Z,1.30
2023-06-17T18:53:50.879Z,1.20
2023-06-17T18:56:22.641Z,1.10
2023-06-17T18:58:52.009Z,1.13
2023-06-17T19:01:24.152Z,2.33
2023-06-17T19:04:06.060Z,1.42
2023-06-17T19:07:04.883Z,1.58
2023-06-17T19:10:17.423Z,1.70
2023-06-17T19:12:52.338Z,1.88
2023-06-17T19:15:22.640Z,2.78
2023-06-17T19:17:59.874Z,3.30
2023-06-17T19:20:30.868Z,2.55
2023-06-17T19:23:05.096Z,2.97
2023-06-17T19:25:37.575Z,3.38
2023-06-17T19:28:11.858Z,2.80
2023-06-17T19:30:50.346Z,2.65
2023-06-17T19:33:19.701Z,2.88
2023-06-17T19:35:51.907Z,2.95
2023-06-17T19:38:23.004Z,2.00
2023-06-17T19:40:52.993Z,1.60
2023-06-17T19:43:25.033Z,1.60
2023-06-17T19:45:59.406Z,1.98
2023-06-17T19:48:30.817Z,1.83
2023-06-17T19:51:02.848Z,1.40
2023-06-17T19:53:34.405Z,1.50
2023-06-17T19:56:15.286Z,1.52
2023-06-17T19:58:54.181Z,1.55
2023-06-17T20:01:25.972Z,1.85
2023-06-17T20:04:11.687Z,1.35
2023-06-17T20:06:42.859Z,1.70
2023-06-17T20:09:16.356Z,1.95
2023-06-17T20:11:51.446Z,1.42
2023-06-17T20:14:21.428Z,1.50
2023-06-17T20:16:57.426Z,1.40
2023-06-17T20:19:29.494Z,1.35
2023-06-17T20:21:58.736Z,1.20
2023-06-17T20:24:30.067Z,1.35
2023-06-17T20:27:07.112Z,1.75
2023-06-17T20:29:51.096Z,1.23
2023-06-17T20:32:23.949Z,1.10
2023-06-17T20:35:00.807Z,1.13
2023-06-17T20:37:52.238Z,1.35
2023-06-17T20:40:23.942Z,1.27
2023-06-17T20:43:22.259Z,1.17
2023-06-17T20:45:53.612Z,1.08
2023-06-17T20:48:25.589Z,1.25
2023-06-17T20:50:55.805Z,1.13
2023-06-17T20:53:35.973Z,1.13
2023-06-17T20:56:14.133Z,1.00
2023-06-17T20:58:43.157Z,1.60
2023-06-17T21:01:13.017Z,1.42
2023-06-17T21:03:44.612Z,1.05
2023-06-17T21:06:18.988Z,1.20
2023-06-17T21:08:48.460Z,1.50
2023-06-17T21:11:19.745Z,1.00
2023-06-17T21:13:52.911Z,1.00
2023-06-17T21:16:25.921Z,1.17
2023-06-17T21:18:55.184Z,1.00
2023-06-17T21:21:26.748Z,1.10
2023-06-17T21:23:59.247Z,1.10
2023-06-17T21:26:28.969Z,1.30
2023-06-17T21:28:58.125Z,1.10
2023-06-17T21:31:27.480Z,1.15
2023-06-17T21:33:56.669Z,1.13
2023-06-17T21:36:25.758Z,1.20
2023-06-17T21:39:02.963Z,1.35
2023-06-17T21:41:35.197Z,1.17
2023-06-17T21:44:06.889Z,1.30
2023-06-17T21:46:38.298Z,1.38
2023-06-17T21:49:07.390Z,1.35
2023-06-17T21:51:37.456Z,1.00
2023-06-17T21:54:10.908Z,1.10
2023-06-17T21:56:40.299Z,1.13
2023-06-17T21:59:09.687Z,1.40
2023-06-17T22:01:38.868Z,1.30
2023-06-17T22:04:10.818Z,1.58
2023-06-17T22:06:40.045Z,1.20
2023-06-17T22:09:09.261Z,1.17
2023-06-17T22:11:41.235Z,1.40
2023-06-17T22:14:10.445Z,1.20
2023-06-17T22:16:45.495Z,1.33
2023-06-17T22:19:40.850Z,1.45
2023-06-17T22:22:10.273Z,1.30
2023-06-17T22:24:42.151Z,1.25
2023-06-17T22:27:15.454Z,1.42
2023-06-17T22:29:48.819Z,1.37
2023-06-17T22:32:20.322Z,1.38
2023-06-17T22:35:01.770Z,1.65
2023-06-17T22:37:46.189Z,1.23
2023-06-17T22:40:15.502Z,1.33
2023-06-17T22:42:44.451Z,1.17
2023-06-17T22:45:13.464Z,1.33
2023-06-17T22:47:42.434Z,1.00
2023-06-17T22:50:11.903Z,1.50
2023-06-17T22:52:41.602Z,2.05
2023-06-17T22:55:21.364Z,1.27
2023-06-17T22:57:50.627Z,1.50
2023-06-17T23:00:20.166Z,1.38
2023-06-17T23:02:49.470Z,1.30
2023-06-17T23:05:21.615Z,1.20
2023-06-17T23:07:54.358Z,1.10
2023-06-17T23:10:23.798Z,1.35
2023-06-17T23:12:54.643Z,1.27
2023-06-17T23:15:23.863Z,1.63
2023-06-17T23:17:59.137Z,1.50
2023-06-17T23:20:28.975Z,1.60
2023-06-17T23:23:01.183Z,1.33
2023-06-17T23:25:33.234Z,1.70
2023-06-17T23:28:03.676Z,1.10
2023-06-17T23:30:32.943Z,1.40
2023-06-17T23:33:04.625Z,1.80
2023-06-17T23:35:47.438Z,2.30
2023-06-17T23:38:36.995Z,3.25
2023-06-17T23:41:10.235Z,2.95
2023-06-17T23:43:39.998Z,4.03
2023-06-17T23:46:10.215Z,2.40
2023-06-17T23:48:39.728Z,2.75
2023-06-17T23:51:10.548Z,2.58
2023-06-17T23:53:42.494Z,2.78
2023-06-17T23:56:14.098Z,2.17
2023-06-17T23:58:47.801Z,1.85
